Time;durP1;ratioP1;P1;durP2;ratioP2;P2;SDS_P1;SDS_P2;PMS_P1;PMS_P2;Temp;Humidity;BMP_temperature;BMP_pressure;BME280_temperature;BME280_humidity;BME280_pressure;Samples;Min_cycle;Max_cycle;Signal;HPM_P1;HPM_P2
2023/07/21 00:00:24;;;;;;;;;;;;;;;12.03;100.00;101240.97;5004424;28;19928;-70
2023/07/21 00:02:52;;;;;;;;;;;;;;;12.14;100.00;101245.50;5009122;28;20275;-70
2023/07/21 00:05:17;;;;;;;;;;;;;;;12.20;100.00;101239.66;4991249;28;19933;-70
2023/07/21 00:07:44;;;;;;;;;;;;;;;12.18;100.00;101230.84;4971207;28;19957;-70
2023/07/21 00:10:10;;;;;;;;;;;;;;;12.15;100.00;101234.63;4977721;28;19964;-70
2023/07/21 00:12:37;;;;;;;;;;;;;;;12.10;100.00;101242.22;4984575;28;19933;-70
2023/07/21 00:15:03;;;;;;;;;;;;;;;12.01;100.00;101234.84;5005427;28;19929;-70
2023/07/21 00:17:30;;;;;;;;;;;;;;;11.86;100.00;101236.84;4975582;28;19940;-70
2023/07/21 00:19:56;;;;;;;;;;;;;;;11.86;100.00;101236.84;4977851;28;20623;-70
2023/07/21 00:22:21;;;;;;;;;;;;;;;11.88;100.00;101234.06;5009314;28;20460;-70
2023/07/21 00:24:46;;;;;;;;;;;;;;;11.92;100.00;101233.69;4989566;28;19935;-70
2023/07/21 00:27:12;;;;;;;;;;;;;;;11.90;100.00;101232.09;4987463;28;19932;-69
2023/07/21 00:29:37;;;;;;;;;;;;;;;11.82;100.00;101224.59;4993649;28;20146;-70
2023/07/21 00:32:02;;;;;;;;;;;;;;;11.76;100.00;101230.47;4989344;28;19926;-70
2023/07/21 00:34:28;;;;;;;;;;;;;;;11.78;100.00;101229.38;4989841;28;19932;-70
2023/07/21 00:36:57;;;;;;;;;;;;;;;11.81;100.00;101231.84;4976502;28;20463;-70
2023/07/21 00:39:22;;;;;;;;;;;;;;;11.74;100.00;101213.59;4991156;28;19965;-70
2023/07/21 00:41:47;;;;;;;;;;;;;;;11.81;100.00;101228.25;4989442;28;20106;-70
2023/07/21 00:44:13;;;;;;;;;;;;;;;11.80;100.00;101226.56;4990074;28;19957;-70
2023/07/21 00:46:38;;;;;;;;;;;;;;;11.75;100.00;101231.47;4974442;28;19963;-70
2023/07/21 00:49:03;;;;;;;;;;;;;;;11.76;100.00;101225.94;4972549;28;20307;-70
2023/07/21 00:51:28;;;;;;;;;;;;;;;11.83;100.00;101218.25;4990073;28;20722;-70
2023/07/21 00:53:54;;;;;;;;;;;;;;;11.90;100.00;101218.66;4992412;28;20928;-70
2023/07/21 00:56:19;;;;;;;;;;;;;;;11.86;100.00;101201.88;5008738;28;20016;-70
2023/07/21 00:58:44;;;;;;;;;;;;;;;11.81;100.00;101213.00;4976923;28;19935;-69
2023/07/21 01:01:09;;;;;;;;;;;;;;;11.68;100.00;101215.78;4992761;28;19921;-70
2023/07/21 01:03:35;;;;;;;;;;;;;;;11.54;100.00;101199.81;5006430;28;20336;-70
2023/07/21 01:06:00;;;;;;;;;;;;;;;11.64;100.00;101216.97;4990753;28;20804;-70
2023/07/21 01:08:25;;;;;;;;;;;;;;;11.62;100.00;101215.41;4991621;28;19983;-70
2023/07/21 01:10:51;;;;;;;;;;;;;;;11.59;100.00;101202.19;4990804;28;19979;-70
2023/07/21 01:13:17;;;;;;;;;;;;;;;11.50;100.00;101203.75;4975862;28;20024;-70
2023/07/21 01:15:49;;;;;;;;;;;;;;;11.44;100.00;101202.34;4976118;28;20170;-69
2023/07/21 01:18:15;;;;;;;;;;;;;;;11.44;100.00;101206.88;4973442;28;19925;-69
2023/07/21 01:20:40;;;;;;;;;;;;;;;11.26;100.00;101169.66;4988081;28;19925;-70
2023/07/21 01:23:17;;;;;;;;;;;;;;;11.35;100.00;101195.00;4991891;28;19933;-69
2023/07/21 01:25:42;;;;;;;;;;;;;;;11.36;100.00;101192.19;4986504;28;19925;-70
2023/07/21 01:28:08;;;;;;;;;;;;;;;11.37;100.00;101191.22;4973177;28;19987;-70
2023/07/21 01:30:33;;;;;;;;;;;;;;;11.40;100.00;101198.19;4985282;28;20028;-70
2023/07/21 01:32:59;;;;;;;;;;;;;;;11.43;100.00;101194.41;4989603;28;20250;-70
2023/07/21 01:35:28;;;;;;;;;;;;;;;11.44;100.00;101190.75;4982087;28;19960;-70
2023/07/21 01:37:53;;;;;;;;;;;;;;;11.43;100.00;101189.88;4975705;28;19931;-70
2023/07/21 01:40:19;;;;;;;;;;;;;;;11.44;100.00;101182.69;4988731;28;19928;-69
2023/07/21 01:42:45;;;;;;;;;;;;;;;11.33;100.00;101178.97;4989239;28;19925;-70
2023/07/21 01:45:11;;;;;;;;;;;;;;;11.25;100.00;101178.72;4991368;28;19925;-70
2023/07/21 01:47:36;;;;;;;;;;;;;;;11.23;100.00;101177.97;4983329;28;19979;-70
2023/07/21 01:50:03;;;;;;;;;;;;;;;11.24;100.00;101175.16;4971618;28;20019;-70
2023/07/21 01:52:29;;;;;;;;;;;;;;;11.13;100.00;101175.09;5008796;28;20064;-70
2023/07/21 01:55:00;;;;;;;;;;;;;;;11.00;100.00;101169.78;4990236;28;20295;-70
2023/07/21 01:57:32;;;;;;;;;;;;;;;10.88;100.00;101166.19;4991070;28;20016;-70
2023/07/21 01:59:58;;;;;;;;;;;;;;;10.92;100.00;101169.50;4987310;28;20135;-70
2023/07/21 02:02:23;;;;;;;;;;;;;;;10.93;100.00;101161.34;4992032;28;19932;-70
2023/07/21 02:04:50;;;;;;;;;;;;;;;10.91;100.00;101163.28;4974919;28;19921;-70
2023/07/21 02:07:15;;;;;;;;;;;;;;;10.94;100.00;101164.88;4997080;28;19925;-70
2023/07/21 02:09:40;;;;;;;;;;;;;;;10.96;100.00;101160.25;4991757;28;19929;-70
2023/07/21 02:12:06;;;;;;;;;;;;;;;10.99;100.00;101156.47;4985920;28;19975;-70
2023/07/21 02:14:31;;;;;;;;;;;;;;;11.01;100.00;101154.53;4991367;28;20003;-70
2023/07/21 02:16:57;;;;;;;;;;;;;;;10.97;100.00;101163.78;4994062;28;20831;-70
2023/07/21 02:19:22;;;;;;;;;;;;;;;10.84;100.00;101155.78;4987462;28;20363;-70
2023/07/21 02:21:47;;;;;;;;;;;;;;;10.80;100.00;101155.16;5007856;28;19929;-70
2023/07/21 02:24:12;;;;;;;;;;;;;;;10.79;100.00;101154.28;4969875;28;20517;-70
2023/07/21 02:26:38;;;;;;;;;;;;;;;10.83;100.00;101164.81;5007545;28;20016;-70
2023/07/21 02:29:03;;;;;;;;;;;;;;;10.80;100.00;101156.00;5006071;28;20042;-70
2023/07/21 02:31:28;;;;;;;;;;;;;;;10.76;100.00;101161.72;5008015;28;19994;-70
2023/07/21 02:33:53;;;;;;;;;;;;;;;10.71;100.00;101154.03;4987643;28;19960;-70
2023/07/21 02:36:19;;;;;;;;;;;;;;;10.70;100.00;101157.69;5005453;28;20426;-70
2023/07/21 02:38:44;;;;;;;;;;;;;;;10.63;100.00;101159.94;4989204;28;19971;-70
2023/07/21 02:41:09;;;;;;;;;;;;;;;10.60;100.00;101154.78;5008744;28;20063;-70
2023/07/21 02:43:35;;;;;;;;;;;;;;;10.58;100.00;101153.19;4988126;28;19929;-70
2023/07/21 02:46:00;;;;;;;;;;;;;;;10.56;100.00;101147.06;4990597;28;19992;-70
2023/07/21 02:48:25;;;;;;;;;;;;;;;10.52;100.00;101149.13;4988412;28;19931;-70
2023/07/21 02:50:51;;;;;;;;;;;;;;;10.49;100.00;101147.50;5009264;28;20525;-70
2023/07/21 02:53:16;;;;;;;;;;;;;;;10.42;100.00;101143.59;5006065;28;20395;-70
2023/07/21 02:55:42;;;;;;;;;;;;;;;10.43;100.00;101139.06;4991143;28;19921;-70
2023/07/21 02:58:07;;;;;;;;;;;;;;;10.46;100.00;101146.88;5007241;28;19932;-70
2023/07/21 03:00:32;;;;;;;;;;;;;;;10.41;100.00;101139.19;5003102;28;19931;-70
2023/07/21 03:02:57;;;;;;;;;;;;;;;10.37;100.00;101132.28;4988412;28;20015;-70
2023/07/21 03:05:23;;;;;;;;;;;;;;;10.34;100.00;101141.38;5011329;28;20884;-70
2023/07/21 03:07:48;;;;;;;;;;;;;;;10.33;100.00;101136.16;5008423;28;20567;-70
2023/07/21 03:10:15;;;;;;;;;;;;;;;10.30;100.00;101134.56;4987033;28;20284;-70
2023/07/21 03:12:40;;;;;;;;;;;;;;;10.27;100.00;101129.41;4991566;28;20027;-70
2023/07/21 03:15:06;;;;;;;;;;;;;;;10.25;100.00;101139.38;5009811;28;19936;-70
2023/07/21 03:17:32;;;;;;;;;;;;;;;10.11;100.00;101121.59;4992940;28;19947;-70
2023/07/21 03:19:57;;;;;;;;;;;;;;;10.17;100.00;101134.56;5006817;28;20256;-70
2023/07/21 03:22:22;;;;;;;;;;;;;;;10.15;100.00;101127.59;4990963;28;20040;-70
2023/07/21 03:24:48;;;;;;;;;;;;;;;10.13;100.00;101135.75;4992000;28;19931;-70
2023/07/21 03:27:14;;;;;;;;;;;;;;;10.11;100.00;101131.44;5000292;28;19922;-70
2023/07/21 03:29:39;;;;;;;;;;;;;;;10.10;100.00;101135.97;5009974;28;19956;-70
2023/07/21 03:32:05;;;;;;;;;;;;;;;10.06;100.00;101135.31;5006991;28;19925;-70
2023/07/21 03:34:30;;;;;;;;;;;;;;;10.02;100.00;101139.22;4989592;28;19921;-70
2023/07/21 03:36:55;;;;;;;;;;;;;;;10.01;100.00;101139.31;5006130;28;20175;-70
2023/07/21 03:39:23;;;;;;;;;;;;;;;10.06;100.00;101134.47;4991726;28;19917;-70
2023/07/21 03:41:48;;;;;;;;;;;;;;;10.11;100.00;101139.50;5013832;28;19925;-70
2023/07/21 03:44:13;;;;;;;;;;;;;;;10.05;100.00;101143.50;4972323;28;19928;-70
2023/07/21 03:46:39;;;;;;;;;;;;;;;10.01;100.00;101136.63;4975199;28;20028;-70
2023/07/21 03:49:04;;;;;;;;;;;;;;;10.05;100.00;101139.00;4992706;28;20624;-70
2023/07/21 03:51:29;;;;;;;;;;;;;;;10.10;100.00;101127.06;4990174;28;20245;-70
2023/07/21 03:53:58;;;;;;;;;;;;;;;10.12;100.00;101136.72;4994868;28;20031;-70
2023/07/21 03:56:23;;;;;;;;;;;;;;;10.11;100.00;101136.81;4993196;28;19929;-70
2023/07/21 03:58:49;;;;;;;;;;;;;;;10.06;100.00;101132.63;4991618;28;19936;-70
2023/07/21 04:01:15;;;;;;;;;;;;;;;10.06;100.00;101137.16;5009785;28;19921;-70
2023/07/21 04:03:40;;;;;;;;;;;;;;;10.09;100.00;101136.06;5008458;28;20409;-70
2023/07/21 04:06:08;;;;;;;;;;;;;;;10.08;100.00;101137.03;4994424;28;19929;-70
2023/07/21 04:08:34;;;;;;;;;;;;;;;10.04;100.00;101134.59;5008407;28;20056;-71
2023/07/21 04:10:59;;;;;;;;;;;;;;;10.11;100.00;101126.97;4989748;28;19964;-70
2023/07/21 04:13:26;;;;;;;;;;;;;;;10.16;100.00;101122.13;4988693;28;19971;-70
2023/07/21 04:15:52;;;;;;;;;;;;;;;10.19;100.00;101119.22;4994897;28;20128;-70
2023/07/21 04:18:17;;;;;;;;;;;;;;;10.17;100.00;101115.78;5005849;28;19921;-70
2023/07/21 04:20:42;;;;;;;;;;;;;;;10.18;100.00;101116.63;5008444;28;19921;-70
2023/07/21 04:23:09;;;;;;;;;;;;;;;10.13;100.00;101106.25;5013764;28;20291;-70
2023/07/21 04:25:34;;;;;;;;;;;;;;;10.11;100.00;101113.53;4997043;28;19921;-70
2023/07/21 04:27:59;;;;;;;;;;;;;;;10.12;100.00;101115.25;5006656;28;19925;-70
2023/07/21 04:30:25;;;;;;;;;;;;;;;10.19;100.00;101121.91;4988121;28;19921;-70
2023/07/21 04:32:50;;;;;;;;;;;;;;;10.24;100.00;101118.88;5005175;28;20588;-70
2023/07/21 04:35:18;;;;;;;;;;;;;;;10.26;100.00;101118.75;5011222;28;20447;-71
2023/07/21 04:37:43;;;;;;;;;;;;;;;10.21;100.00;101113.75;4995631;28;20223;-70
2023/07/21 04:40:10;;;;;;;;;;;;;;;10.19;100.00;101115.69;5011458;28;19921;-70
2023/07/21 04:42:36;;;;;;;;;;;;;;;10.09;100.00;101118.16;5013605;28;20095;-70
2023/07/21 04:45:01;;;;;;;;;;;;;;;10.09;100.00;101109.25;5008767;28;20232;-71
2023/07/21 04:47:26;;;;;;;;;;;;;;;10.19;100.00;101113.00;5010257;28;20291;-70
2023/07/21 04:49:52;;;;;;;;;;;;;;;10.29;100.00;101106.00;4989289;28;20333;-70
2023/07/21 04:52:17;;;;;;;;;;;;;;;10.39;100.00;101111.59;5009500;28;20314;-70
2023/07/21 04:54:44;;;;;;;;;;;;;;;10.46;100.00;101106.63;4982145;28;19925;-70
2023/07/21 04:57:10;;;;;;;;;;;;;;;10.57;100.00;101106.69;4999424;28;19936;-70
2023/07/21 04:59:35;;;;;;;;;;;;;;;10.70;100.00;101109.34;4990446;28;19929;-70
2023/07/21 05:02:01;;;;;;;;;;;;;;;10.82;100.00;101117.44;4975287;28;19960;-70
2023/07/21 05:04:26;;;;;;;;;;;;;;;10.80;100.00;101099.59;5010247;28;19929;-70
2023/07/21 05:06:51;;;;;;;;;;;;;;;10.98;100.00;101119.84;5014673;28;19940;-70
2023/07/21 05:09:17;;;;;;;;;;;;;;;11.05;100.00;101119.25;4995413;28;19972;-70
2023/07/21 05:11:42;;;;;;;;;;;;;;;11.19;100.00;101120.06;4996142;28;19933;-70
2023/07/21 05:14:07;;;;;;;;;;;;;;;11.33;100.00;101109.09;4976602;28;19979;-70
2023/07/21 05:16:35;;;;;;;;;;;;;;;11.46;100.00;101118.91;4993088;28;20020;-71
2023/07/21 05:19:00;;;;;;;;;;;;;;;11.58;100.00;101114.41;4976554;28;20024;-70
2023/07/21 05:21:25;;;;;;;;;;;;;;;11.67;100.00;101113.66;4971030;28;20483;-70
2023/07/21 05:23:51;;;;;;;;;;;;;;;11.72;100.00;101121.41;5008043;28;19953;-71
2023/07/21 05:26:17;;;;;;;;;;;;;;;11.85;100.00;101114.94;4989412;28;20011;-70
2023/07/21 05:28:42;;;;;;;;;;;;;;;12.03;100.00;101124.41;4990671;28;19972;-70
2023/07/21 05:31:11;;;;;;;;;;;;;;;12.14;100.00;101130.63;4987136;28;19933;-70
2023/07/21 05:33:36;;;;;;;;;;;;;;;12.25;100.00;101118.13;4987418;28;19952;-70
2023/07/21 05:36:09;;;;;;;;;;;;;;;12.37;100.00;101121.66;4991263;28;20391;-70
2023/07/21 05:38:35;;;;;;;;;;;;;;;12.57;100.00;101125.44;4991299;28;19925;-71
2023/07/21 05:41:00;;;;;;;;;;;;;;;12.78;100.00;101121.94;4991343;28;19986;-71
2023/07/21 05:43:26;;;;;;;;;;;;;;;12.99;100.00;101120.16;4976035;28;19983;-70
2023/07/21 05:45:51;;;;;;;;;;;;;;;13.13;100.00;101124.38;4989304;28;20003;-70
2023/07/21 05:48:16;;;;;;;;;;;;;;;13.26;100.00;101128.75;4972314;28;20290;-70
2023/07/21 05:50:41;;;;;;;;;;;;;;;13.35;100.00;101136.06;4991528;28;20272;-70
2023/07/21 05:53:06;;;;;;;;;;;;;;;13.45;100.00;101138.88;4990154;28;20617;-70
2023/07/21 05:55:32;;;;;;;;;;;;;;;13.48;100.00;101125.13;4978196;28;20395;-71
2023/07/21 05:57:57;;;;;;;;;;;;;;;13.71;100.00;101133.91;4972665;28;20332;-70
2023/07/21 06:00:22;;;;;;;;;;;;;;;13.90;100.00;101127.78;4971681;28;20347;-70
2023/07/21 06:02:47;;;;;;;;;;;;;;;14.09;100.00;101131.53;4988372;28;20446;-70
2023/07/21 06:05:13;;;;;;;;;;;;;;;14.30;100.00;101128.78;4970599;28;19971;-71
2023/07/21 06:07:42;;;;;;;;;;;;;;;14.47;100.00;101116.47;4995269;28;19924;-71
2023/07/21 06:10:07;;;;;;;;;;;;;;;14.68;100.00;101121.81;4978622;28;19932;-70
2023/07/21 06:12:33;;;;;;;;;;;;;;;14.85;100.00;101122.13;4990484;28;19928;-70
2023/07/21 06:14:59;;;;;;;;;;;;;;;14.97;100.00;101120.97;4986619;28;19924;-70
2023/07/21 06:17:25;;;;;;;;;;;;;;;15.09;100.00;101108.19;4987423;28;19932;-70
2023/07/21 06:19:50;;;;;;;;;;;;;;;15.25;100.00;101117.56;4992711;28;19921;-70
2023/07/21 06:22:15;;;;;;;;;;;;;;;15.36;100.00;101117.41;4990385;28;19925;-70
2023/07/21 06:24:41;;;;;;;;;;;;;;;15.51;100.00;101117.81;4972497;28;19976;-70
2023/07/21 06:27:06;;;;;;;;;;;;;;;15.70;100.00;101108.81;4993339;28;20012;-70
2023/07/21 06:29:33;;;;;;;;;;;;;;;15.83;100.00;101100.34;4978012;28;19936;-70
2023/07/21 06:31:58;;;;;;;;;;;;;;;16.01;100.00;101110.47;4973826;28;20573;-70
2023/07/21 06:34:23;;;;;;;;;;;;;;;16.13;100.00;101111.13;4991337;28;19925;-70
2023/07/21 06:36:49;;;;;;;;;;;;;;;16.38;100.00;101103.28;5008413;28;20368;-70
2023/07/21 06:39:14;;;;;;;;;;;;;;;16.53;100.00;101103.63;4972902;28;19929;-70
2023/07/21 06:41:40;;;;;;;;;;;;;;;16.56;100.00;101097.88;4995602;28;19925;-70
2023/07/21 06:44:05;;;;;;;;;;;;;;;16.67;100.00;101091.41;4978617;28;19932;-70
2023/07/21 06:46:30;;;;;;;;;;;;;;;16.74;100.00;101095.19;4976761;28;20028;-70
2023/07/21 06:48:56;;;;;;;;;;;;;;;16.86;100.00;101099.41;4976304;28;19925;-70
2023/07/21 06:51:21;;;;;;;;;;;;;;;16.94;100.00;101090.47;4995364;28;19921;-70
2023/07/21 06:53:47;;;;;;;;;;;;;;;16.86;100.00;101093.09;5011543;28;20287;-70
2023/07/21 06:56:13;;;;;;;;;;;;;;;16.72;100.00;101086.38;4991916;28;20244;-70
2023/07/21 06:58:38;;;;;;;;;;;;;;;16.68;100.00;101091.25;4993956;28;19968;-70
2023/07/21 07:01:03;;;;;;;;;;;;;;;16.71;100.00;101084.66;4983726;28;19925;-70
2023/07/21 07:03:29;;;;;;;;;;;;;;;16.91;100.00;101086.25;4988969;28;19925;-70
2023/07/21 07:05:55;;;;;;;;;;;;;;;17.02;100.00;101085.19;4979217;28;19925;-70
2023/07/21 07:08:20;;;;;;;;;;;;;;;17.23;100.00;101086.69;4990082;28;20419;-70
2023/07/21 07:10:47;;;;;;;;;;;;;;;17.35;100.00;101087.28;4989569;28;19980;-70
2023/07/21 07:13:13;;;;;;;;;;;;;;;17.17;100.00;101090.91;4974545;28;20282;-69
2023/07/21 07:15:38;;;;;;;;;;;;;;;17.14;100.00;101087.63;5003279;28;20353;-70
2023/07/21 07:18:04;;;;;;;;;;;;;;;17.35;100.00;101081.88;4992260;28;19976;-70
2023/07/21 07:20:29;;;;;;;;;;;;;;;17.46;100.00;101081.63;4994615;28;20283;-69
2023/07/21 07:22:54;;;;;;;;;;;;;;;17.62;100.00;101080.84;5010727;28;20355;-70
2023/07/21 07:25:23;;;;;;;;;;;;;;;17.30;100.00;101082.34;4998783;28;19983;-69
2023/07/21 07:27:49;;;;;;;;;;;;;;;17.27;100.00;101082.66;4994267;28;19925;-69
2023/07/21 07:30:16;;;;;;;;;;;;;;;17.28;100.00;101078.94;5009830;28;19928;-71
2023/07/21 07:32:41;;;;;;;;;;;;;;;17.24;100.00;101085.69;5011120;28;19948;-69
2023/07/21 07:35:07;;;;;;;;;;;;;;;17.27;100.00;101081.78;4994460;28;20352;-69
2023/07/21 07:37:32;;;;;;;;;;;;;;;17.36;100.00;101086.28;4998282;28;19971;-69
2023/07/21 07:39:57;;;;;;;;;;;;;;;17.64;100.00;101088.84;4989392;28;20320;-70
2023/07/21 07:42:23;;;;;;;;;;;;;;;17.90;100.00;101077.94;4977957;28;20707;-70
2023/07/21 07:44:48;;;;;;;;;;;;;;;18.12;100.00;101081.16;5007979;28;20255;-70
2023/07/21 07:47:13;;;;;;;;;;;;;;;18.20;100.00;101080.34;5001776;28;19969;-70
2023/07/21 07:49:39;;;;;;;;;;;;;;;18.28;100.00;101086.66;4995488;28;20035;-70
2023/07/21 07:52:06;;;;;;;;;;;;;;;18.46;100.00;101073.97;5012376;28;20434;-70
2023/07/21 07:54:33;;;;;;;;;;;;;;;18.61;100.00;101082.31;4989715;28;19925;-70
2023/07/21 07:56:58;;;;;;;;;;;;;;;18.71;100.00;101077.56;4997118;28;19929;-70
2023/07/21 07:59:24;;;;;;;;;;;;;;;18.84;100.00;101080.66;4997807;28;19944;-70
2023/07/21 08:01:49;;;;;;;;;;;;;;;18.90;100.00;101081.84;4996003;28;20330;-70
2023/07/21 08:04:14;;;;;;;;;;;;;;;18.93;100.00;101076.06;5011079;28;20015;-70
2023/07/21 08:06:40;;;;;;;;;;;;;;;19.03;100.00;101073.22;5005044;28;19973;-70
2023/07/21 08:09:06;;;;;;;;;;;;;;;19.15;100.00;101076.44;4996251;28;20287;-71
2023/07/21 08:11:31;;;;;;;;;;;;;;;19.14;100.00;101082.91;4993122;28;20406;-70
2023/07/21 08:13:56;;;;;;;;;;;;;;;19.02;100.00;101074.25;4993500;28;20287;-70
2023/07/21 08:16:21;;;;;;;;;;;;;;;19.08;100.00;101080.88;4990341;28;20162;-69
2023/07/21 08:18:46;;;;;;;;;;;;;;;19.01;100.00;101081.56;5010372;28;20391;-70
2023/07/21 08:21:18;;;;;;;;;;;;;;;18.90;100.00;101081.84;5011472;28;20399;-70
2023/07/21 08:23:44;;;;;;;;;;;;;;;18.97;100.00;101079.34;5004332;28;19936;-70
2023/07/21 08:26:09;;;;;;;;;;;;;;;18.67;100.00;101077.06;4977891;28;19925;-69
2023/07/21 08:28:34;;;;;;;;;;;;;;;18.72;100.00;101076.56;5010152;28;20351;-70
2023/07/21 08:30:59;;;;;;;;;;;;;;;18.41;100.00;101080.75;5005869;28;20342;-69
2023/07/21 08:33:25;;;;;;;;;;;;;;;18.63;100.00;101077.59;5007680;28;19932;-70
2023/07/21 08:35:50;;;;;;;;;;;;;;;18.87;100.00;101079.47;4991494;28;19956;-70
2023/07/21 08:38:16;;;;;;;;;;;;;;;19.09;100.00;101085.28;4987541;28;20364;-70
2023/07/21 08:40:41;;;;;;;;;;;;;;;19.33;100.00;101089.88;4989396;28;20256;-71
2023/07/21 08:43:06;;;;;;;;;;;;;;;19.52;100.00;101090.53;4989817;28;19925;-70
2023/07/21 08:45:33;;;;;;;;;;;;;;;19.71;100.00;101092.03;4995347;28;20351;-70
2023/07/21 08:48:01;;;;;;;;;;;;;;;19.84;100.00;101078.75;4994543;28;19976;-71
2023/07/21 08:50:26;;;;;;;;;;;;;;;19.77;100.00;101086.72;4983570;28;19939;-70
2023/07/21 08:52:51;;;;;;;;;;;;;;;19.69;100.00;101078.59;5004089;28;19933;-70
2023/07/21 08:55:16;;;;;;;;;;;;;;;19.53;100.00;101087.66;4990421;28;19925;-70
2023/07/21 08:57:41;;;;;;;;;;;;;;;19.64;100.00;101081.81;4973172;28;19922;-70
2023/07/21 09:00:09;;;;;;;;;;;;;;;19.79;100.00;101079.25;5008726;28;19936;-71
2023/07/21 09:02:38;;;;;;;;;;;;;;;19.96;100.00;101076.50;4992046;28;19932;-71
2023/07/21 09:05:04;;;;;;;;;;;;;;;19.81;100.00;101087.25;4994434;28;19921;-70
2023/07/21 09:07:30;;;;;;;;;;;;;;;19.68;100.00;101087.81;5008755;28;19955;-70
2023/07/21 09:09:55;;;;;;;;;;;;;;;19.68;100.00;101087.81;4994278;28;20011;-70
2023/07/21 09:12:20;;;;;;;;;;;;;;;19.76;100.00;101085.03;5001326;28;20028;-72
2023/07/21 09:14:47;;;;;;;;;;;;;;;19.64;100.00;101083.72;4973228;28;19947;-71
2023/07/21 09:17:12;;;;;;;;;;;;;;;19.75;100.00;101080.59;4972823;28;19953;-70
2023/07/21 09:19:38;;;;;;;;;;;;;;;19.77;100.00;101081.28;4973043;28;20021;-71
2023/07/21 09:22:03;;;;;;;;;;;;;;;19.76;100.00;101076.88;4987992;28;19925;-71
2023/07/21 09:24:28;;;;;;;;;;;;;;;19.80;100.00;101085.56;4965552;28;19960;-70
2023/07/21 09:27:09;;;;;;;;;;;;;;;19.73;99.75;101079.09;4994184;28;19964;-71
2023/07/21 09:29:34;;;;;;;;;;;;;;;19.86;100.00;101078.53;5011535;28;19925;-71
2023/07/21 09:32:00;;;;;;;;;;;;;;;19.70;100.00;101080.31;4999784;28;19944;-69
2023/07/21 09:34:25;;;;;;;;;;;;;;;19.98;98.39;101077.19;4983985;28;19965;-71
2023/07/21 09:36:50;;;;;;;;;;;;;;;20.05;99.57;101069.16;4987215;28;20444;-70
2023/07/21 09:39:15;;;;;;;;;;;;;;;20.33;97.53;101068.69;4987196;28;20283;-70
2023/07/21 09:41:41;;;;;;;;;;;;;;;20.53;93.11;101063.59;5007245;28;20286;-72
2023/07/21 09:44:06;;;;;;;;;;;;;;;20.68;95.53;101061.81;4988423;28;20597;-71
2023/07/21 09:46:32;;;;;;;;;;;;;;;20.82;94.50;101053.88;4990819;28;20025;-70
2023/07/21 09:48:57;;;;;;;;;;;;;;;20.45;92.98;101063.66;4975610;28;19930;-73
2023/07/21 09:51:26;;;;;;;;;;;;;;;20.43;91.23;101055.66;5011797;28;19964;-71
2023/07/21 09:53:52;;;;;;;;;;;;;;;20.96;89.04;101054.97;5010729;28;19925;-70
2023/07/21 09:56:17;;;;;;;;;;;;;;;21.32;84.30;101053.50;4988980;28;19940;-71
2023/07/21 09:58:46;;;;;;;;;;;;;;;21.52;73.39;101051.06;4989483;28;20347;-71
2023/07/21 10:01:11;;;;;;;;;;;;;;;21.87;77.42;101052.22;4995476;28;19944;-70
2023/07/21 10:03:36;;;;;;;;;;;;;;;22.08;71.44;101050.63;4975823;28;20199;-71
2023/07/21 10:06:02;;;;;;;;;;;;;;;22.23;65.42;101047.00;5003704;28;19971;-69
2023/07/21 10:08:27;;;;;;;;;;;;;;;22.51;66.20;101033.47;4977783;28;19936;-70
2023/07/21 10:10:57;;;;;;;;;;;;;;;22.61;68.42;101033.97;5002570;28;19929;-70
2023/07/21 10:13:23;;;;;;;;;;;;;;;21.91;70.67;101036.31;4992196;28;20198;-70
2023/07/21 10:15:49;;;;;;;;;;;;;;;21.56;76.19;101036.84;5006187;28;19943;-69
2023/07/21 10:18:14;;;;;;;;;;;;;;;21.83;76.00;101037.25;4991327;28;20275;-70
2023/07/21 10:20:41;;;;;;;;;;;;;;;21.73;66.60;101034.78;5008488;28;20289;-69
2023/07/21 10:23:07;;;;;;;;;;;;;;;20.90;73.36;101037.47;5007458;28;19927;-70
2023/07/21 10:25:47;;;;;;;;;;;;;;;21.52;73.21;101041.00;4991693;28;19921;-70
2023/07/21 10:28:13;;;;;;;;;;;;;;;21.95;69.80;101042.22;5010145;28;19921;-68
2023/07/21 10:30:38;;;;;;;;;;;;;;;22.12;68.52;101040.13;4988336;28;20303;-69
2023/07/21 10:33:10;;;;;;;;;;;;;;;22.76;64.57;101044.88;4990470;28;20370;-72
2023/07/21 10:35:36;;;;;;;;;;;;;;;23.05;70.32;101031.22;4993101;28;20662;-69
2023/07/21 10:38:14;;;;;;;;;;;;;;;22.79;71.34;101027.19;4989101;28;19925;-69
2023/07/21 10:40:42;;;;;;;;;;;;;;;22.82;72.02;101028.72;5008289;28;20423;-70
2023/07/21 10:43:08;;;;;;;;;;;;;;;22.87;72.61;101032.53;4989251;28;20016;-69
2023/07/21 10:45:33;;;;;;;;;;;;;;;22.57;70.37;101027.19;4992711;28;19945;-70
2023/07/21 10:48:11;;;;;;;;;;;;;;;22.66;70.12;101035.28;4987454;28;19948;-71
2023/07/21 10:50:38;;;;;;;;;;;;;;;22.65;71.73;101036.34;4989264;28;20240;-72
2023/07/21 10:53:05;;;;;;;;;;;;;;;22.98;69.14;101025.69;4993158;28;19975;-72
2023/07/21 10:55:30;;;;;;;;;;;;;;;23.24;68.03;101029.72;5010744;28;19925;-72
2023/07/21 10:57:55;;;;;;;;;;;;;;;23.50;68.19;101042.78;4984268;28;20378;-70
2023/07/21 11:00:21;;;;;;;;;;;;;;;24.07;65.13;101030.84;4992476;28;19925;-71
2023/07/21 11:02:47;;;;;;;;;;;;;;;24.30;63.93;101032.41;4994831;28;19980;-71
2023/07/21 11:05:12;;;;;;;;;;;;;;;25.08;58.17;101029.19;4988387;28;19929;-72
2023/07/21 11:07:38;;;;;;;;;;;;;;;25.54;55.92;101023.88;4995305;28;19936;-71
2023/07/21 11:10:04;;;;;;;;;;;;;;;25.20;58.49;101014.81;4990968;28;20016;-69
2023/07/21 11:12:29;;;;;;;;;;;;;;;25.53;51.69;101014.78;5006560;28;20252;-73
2023/07/21 11:14:54;;;;;;;;;;;;;;;24.85;55.82;101018.63;4977264;28;19926;-69
2023/07/21 11:17:20;;;;;;;;;;;;;;;25.39;57.99;101019.44;4994740;28;19925;-71
2023/07/21 11:19:46;;;;;;;;;;;;;;;26.20;53.14;101019.22;5007402;28;19979;-73
2023/07/21 11:22:12;;;;;;;;;;;;;;;26.53;54.65;101009.94;4993178;28;20142;-72
2023/07/21 11:24:37;;;;;;;;;;;;;;;26.88;52.95;101008.63;4994395;28;19917;-74
2023/07/21 11:27:05;;;;;;;;;;;;;;;26.24;48.92;101020.47;5007613;28;19975;-73
2023/07/21 11:29:30;;;;;;;;;;;;;;;24.35;53.49;101013.44;4993785;28;20036;-69
2023/07/21 11:31:55;;;;;;;;;;;;;;;24.07;56.12;101025.38;5011141;28;20186;-72
2023/07/21 11:34:21;;;;;;;;;;;;;;;23.44;58.63;101026.28;5008229;28;20384;-72
2023/07/21 11:36:48;;;;;;;;;;;;;;;22.87;56.87;101032.53;4994425;28;20353;-72
2023/07/21 11:39:17;;;;;;;;;;;;;;;22.32;59.71;101033.00;4997344;28;20310;-71
2023/07/21 11:41:49;;;;;;;;;;;;;;;21.96;69.62;101046.66;4994723;28;19925;-71
2023/07/21 11:44:17;;;;;;;;;;;;;;;21.44;93.34;101057.44;4991479;28;19972;-72
2023/07/21 11:46:51;;;;;;;;;;;;;;;20.12;99.14;101096.53;5010816;28;20750;-73
2023/07/21 11:49:17;;;;;;;;;;;;;;;16.94;100.00;101107.63;5007425;28;19951;-67
2023/07/21 11:51:52;;;;;;;;;;;;;;;15.81;100.00;101125.88;5001419;28;21011;-69
2023/07/21 11:54:17;;;;;;;;;;;;;;;15.09;100.00;101118.16;4995363;28;19960;-69
2023/07/21 11:56:43;;;;;;;;;;;;;;;14.56;100.00;101128.28;4997259;28;20036;-67
2023/07/21 11:59:08;;;;;;;;;;;;;;;14.46;100.00;101130.09;5014702;28;20030;-67
2023/07/21 12:01:35;;;;;;;;;;;;;;;14.01;100.00;101137.63;5013514;28;20126;-66
2023/07/21 12:04:00;;;;;;;;;;;;;;;13.81;100.00;101142.06;4997491;28;20240;-68
2023/07/21 12:06:25;;;;;;;;;;;;;;;13.84;100.00;101141.78;4992817;28;20191;-68
2023/07/21 12:08:50;;;;;;;;;;;;;;;13.75;100.00;101142.63;5009646;28;19968;-69
2023/07/21 12:11:16;;;;;;;;;;;;;;;13.69;100.00;101135.03;4971571;28;20048;-68
2023/07/21 12:13:41;;;;;;;;;;;;;;;13.72;100.00;101132.09;4980027;28;19913;-68
2023/07/21 12:16:07;;;;;;;;;;;;;;;13.76;100.00;101130.84;4990690;28;20039;-69
2023/07/21 12:18:33;;;;;;;;;;;;;;;13.75;100.00;101113.78;4994435;28;19937;-68
2023/07/21 12:20:58;;;;;;;;;;;;;;;13.86;100.00;101115.53;4990856;28;21308;-68